createdAt,value
2023-03-11T00:02:26.906Z,3.05
2023-03-11T00:04:54.752Z,2.65
2023-03-11T00:07:22.219Z,2.85
2023-03-11T00:09:49.758Z,2.50
2023-03-11T00:12:17.483Z,2.75
2023-03-11T00:14:44.912Z,2.75
2023-03-11T00:17:12.328Z,2.65
2023-03-11T00:19:40.025Z,2.65
2023-03-11T00:22:07.437Z,2.67
2023-03-11T00:24:34.879Z,2.92
2023-03-11T00:27:02.662Z,2.47
2023-03-11T00:29:30.183Z,2.15
2023-03-11T00:31:57.578Z,2.80
2023-03-11T00:34:25.834Z,2.62
2023-03-11T00:36:54.466Z,2.80
2023-03-11T00:39:23.275Z,2.83
2023-03-11T00:41:51.822Z,2.43
2023-03-11T00:44:19.246Z,2.53
2023-03-11T00:46:46.689Z,2.80
2023-03-11T00:49:14.488Z,2.40
2023-03-11T00:51:41.926Z,2.60
2023-03-11T00:54:09.433Z,2.62
2023-03-11T00:56:37.205Z,2.42
2023-03-11T00:59:05.137Z,2.60
2023-03-11T01:01:32.801Z,2.83
2023-03-11T01:04:00.558Z,2.45
2023-03-11T01:06:39.085Z,2.80
2023-03-11T01:09:10.939Z,2.70
2023-03-11T01:11:38.406Z,2.42
2023-03-11T01:14:06.038Z,2.62
2023-03-11T01:16:33.784Z,2.65
2023-03-11T01:19:01.241Z,2.40
2023-03-11T01:21:28.698Z,2.22
2023-03-11T01:23:56.399Z,2.50
2023-03-11T01:26:23.871Z,2.17
2023-03-11T01:28:51.464Z,2.45
2023-03-11T01:31:19.228Z,2.05
2023-03-11T01:33:46.686Z,2.55
2023-03-11T01:36:14.120Z,2.65
2023-03-11T01:38:41.841Z,2.30
2023-03-11T01:41:11.306Z,2.30
2023-03-11T01:43:44.988Z,2.30
2023-03-11T01:46:25.676Z,2.22
2023-03-11T01:48:54.695Z,2.47
2023-03-11T01:51:38.641Z,2.20
2023-03-11T01:54:14.719Z,2.58
2023-03-11T01:56:42.527Z,2.40
2023-03-11T01:59:12.185Z,2.10
2023-03-11T02:01:44.233Z,2.60
2023-03-11T02:04:11.985Z,2.47
2023-03-11T02:06:39.432Z,2.62
2023-03-11T02:09:07.229Z,2.60
2023-03-11T02:11:35.242Z,2.42
2023-03-11T02:14:04.014Z,2.42
2023-03-11T02:16:31.933Z,2.22
2023-03-11T02:19:00.346Z,1.95
2023-03-11T02:21:31.984Z,2.25
2023-03-11T02:24:13.585Z,2.03
2023-03-11T02:26:57.596Z,2.40
2023-03-11T02:29:26.597Z,2.10
2023-03-11T02:31:54.628Z,2.55
2023-03-11T02:34:28.045Z,2.35
2023-03-11T02:36:55.958Z,2.08
2023-03-11T02:39:40.851Z,2.12
2023-03-11T02:42:31.755Z,2.53
2023-03-11T02:45:12.504Z,1.85
2023-03-11T02:47:40.247Z,2.30
2023-03-11T02:50:09.719Z,1.95
2023-03-11T02:52:37.137Z,2.33
2023-03-11T02:55:05.596Z,1.90
2023-03-11T02:57:34.595Z,2.00
2023-03-11T03:00:11.774Z,1.77
2023-03-11T03:02:40.152Z,1.73
2023-03-11T03:05:08.340Z,2.33
2023-03-11T03:07:36.600Z,1.98
2023-03-11T03:10:05.482Z,2.03
2023-03-11T03:12:32.935Z,2.05
2023-03-11T03:15:00.512Z,2.03
2023-03-11T03:17:28.349Z,2.10
2023-03-11T03:19:56.021Z,2.40
2023-03-11T03:22:27.467Z,2.25
2023-03-11T03:24:55.489Z,1.98
2023-03-11T03:27:22.970Z,2.15
2023-03-11T03:29:51.646Z,2.25
2023-03-11T03:32:19.450Z,2.08
2023-03-11T03:34:47.013Z,2.20
2023-03-11T03:37:14.423Z,2.50
2023-03-11T03:39:42.500Z,2.03
2023-03-11T03:42:11.132Z,1.95
2023-03-11T03:44:38.989Z,1.90
2023-03-11T03:47:07.503Z,2.00
2023-03-11T03:49:35.065Z,2.37
2023-03-11T03:52:04.828Z,1.83
2023-03-11T03:54:32.574Z,2.08
2023-03-11T03:57:00.505Z,2.30
2023-03-11T03:59:29.047Z,2.10
2023-03-11T04:01:57.542Z,1.80
2023-03-11T04:04:26.011Z,2.47
2023-03-11T04:06:53.554Z,1.98
2023-03-11T04:09:21.107Z,2.00
2023-03-11T04:11:48.813Z,2.12
2023-03-11T04:14:16.471Z,1.80
2023-03-11T04:16:44.990Z,2.15
2023-03-11T04:19:12.981Z,2.33
2023-03-11T04:21:40.649Z,2.22
2023-03-11T04:24:08.445Z,1.65
2023-03-11T04:26:36.375Z,1.90
2023-03-11T04:29:04.033Z,1.90
2023-03-11T04:31:32.481Z,2.00
2023-03-11T04:34:00.386Z,1.87
2023-03-11T04:36:27.889Z,1.90
2023-03-11T04:38:56.794Z,1.67
2023-03-11T04:41:25.174Z,1.98
2023-03-11T04:43:52.751Z,2.00
2023-03-11T04:46:20.391Z,2.20
2023-03-11T04:48:48.867Z,1.90
2023-03-11T04:51:16.330Z,2.08
2023-03-11T04:53:43.796Z,1.65
2023-03-11T04:56:11.816Z,1.95
2023-03-11T04:58:39.324Z,1.98
2023-03-11T05:01:06.937Z,1.98
2023-03-11T05:03:34.896Z,2.20
2023-03-11T05:06:02.426Z,2.25
2023-03-11T05:08:30.608Z,1.87
2023-03-11T05:10:58.471Z,1.60
2023-03-11T05:13:25.928Z,2.10
2023-03-11T05:15:53.626Z,2.30
2023-03-11T05:18:21.518Z,1.92
2023-03-11T05:20:49.581Z,1.60
2023-03-11T05:23:17.467Z,1.85
2023-03-11T05:25:45.350Z,1.80
2023-03-11T05:28:12.798Z,1.95
2023-03-11T05:30:40.920Z,1.85
2023-03-11T05:33:09.245Z,1.80
2023-03-11T05:35:37.044Z,1.75
2023-03-11T05:38:04.742Z,1.98
2023-03-11T05:40:33.454Z,1.60
2023-03-11T05:43:01.055Z,1.60
2023-03-11T05:45:29.441Z,1.90
2023-03-11T05:47:57.381Z,1.75
2023-03-11T05:50:25.198Z,1.80
2023-03-11T05:52:53.202Z,1.85
2023-03-11T05:55:21.102Z,1.80
2023-03-11T05:57:51.350Z,2.00
2023-03-11T06:00:20.567Z,1.85
2023-03-11T06:02:48.486Z,2.20
2023-03-11T06:05:16.356Z,1.90
2023-03-11T06:07:44.087Z,1.95
2023-03-11T06:10:12.216Z,1.83
2023-03-11T06:12:39.817Z,1.92
2023-03-11T06:15:08.641Z,1.73
2023-03-11T06:17:36.749Z,2.00
2023-03-11T06:20:06.045Z,2.12
2023-03-11T06:22:33.705Z,1.83
2023-03-11T06:25:01.533Z,1.73
2023-03-11T06:27:31.199Z,2.03
2023-03-11T06:29:58.983Z,1.60
2023-03-11T06:32:27.124Z,1.80
2023-03-11T06:34:54.677Z,1.58
2023-03-11T06:37:25.046Z,1.85
2023-03-11T06:39:53.596Z,1.67
2023-03-11T06:42:23.946Z,1.70
2023-03-11T06:44:52.271Z,1.55
2023-03-11T06:47:20.630Z,1.55
2023-03-11T06:49:50.627Z,1.77
2023-03-11T06:52:18.098Z,2.00
2023-03-11T06:54:45.888Z,1.48
2023-03-11T06:57:14.700Z,1.65
2023-03-11T06:59:42.214Z,2.10
2023-03-11T07:02:12.474Z,2.20
2023-03-11T07:04:41.446Z,1.80
2023-03-11T07:07:08.916Z,1.70
2023-03-11T07:09:36.664Z,1.70
2023-03-11T07:12:06.737Z,1.95
2023-03-11T07:17:02.476Z,1.50
2023-03-11T07:19:30.257Z,1.73
2023-03-11T07:21:57.664Z,1.60
2023-03-11T07:24:25.562Z,1.70
2023-03-11T07:26:52.975Z,1.87
2023-03-11T07:29:20.984Z,1.80
2023-03-11T07:31:49.563Z,1.50
2023-03-11T07:34:17.013Z,1.40
2023-03-11T07:36:45.468Z,1.50
2023-03-11T07:39:15.349Z,1.70
2023-03-11T07:41:42.802Z,1.62
2023-03-11T07:44:13.967Z,1.67
2023-03-11T07:46:41.841Z,1.70
2023-03-11T07:49:09.301Z,2.00
2023-03-11T07:51:37.314Z,1.73
2023-03-11T07:54:05.323Z,1.70
2023-03-11T07:56:33.914Z,1.62
2023-03-11T07:59:01.800Z,1.60
2023-03-11T08:01:36.576Z,1.50
2023-03-11T08:04:05.299Z,1.92
2023-03-11T08:06:33.467Z,2.10
2023-03-11T08:09:01.814Z,1.33
2023-03-11T08:11:30.675Z,1.45
2023-03-11T08:13:58.115Z,1.70
2023-03-11T08:16:25.782Z,1.80
2023-03-11T08:18:53.763Z,1.40
2023-03-11T08:21:22.911Z,1.23
2023-03-11T08:23:50.601Z,1.30
2023-03-11T08:26:19.987Z,1.20
2023-03-11T08:28:47.494Z,1.40
2023-03-11T08:31:16.151Z,1.20
2023-03-11T08:33:44.868Z,1.20
2023-03-11T08:36:12.754Z,2.20
2023-03-11T08:38:40.369Z,1.67
2023-03-11T08:41:08.174Z,1.50
2023-03-11T08:43:35.799Z,1.35
2023-03-11T08:46:04.019Z,1.15
2023-03-11T08:48:31.825Z,1.42
2023-03-11T08:50:59.324Z,1.50
2023-03-11T08:53:26.949Z,1.55
2023-03-11T08:55:54.804Z,1.58
2023-03-11T08:58:22.244Z,1.35
2023-03-11T09:00:49.659Z,1.12
2023-03-11T09:03:17.415Z,1.27
2023-03-11T09:05:44.884Z,1.27
2023-03-11T09:08:12.432Z,1.67
2023-03-11T09:10:40.200Z,1.55
2023-03-11T09:13:07.653Z,1.20
2023-03-11T09:15:36.473Z,1.45
2023-03-11T09:18:04.260Z,1.30
2023-03-11T09:20:31.713Z,1.62
2023-03-11T09:22:59.407Z,1.42
2023-03-11T09:25:27.277Z,1.40
2023-03-11T09:27:54.909Z,1.55
2023-03-11T09:30:22.508Z,1.40
2023-03-11T09:32:50.336Z,1.52
2023-03-11T09:35:18.021Z,1.52
2023-03-11T09:37:45.501Z,1.25
2023-03-11T09:40:17.735Z,1.52
2023-03-11T09:42:50.089Z,0.90
2023-03-11T09:45:35.427Z,1.25
2023-03-11T09:48:18.326Z,1.23
2023-03-11T09:50:53.598Z,1.20
2023-03-11T09:53:36.042Z,1.05
2023-03-11T09:56:24.374Z,1.45
2023-03-11T09:59:22.068Z,1.40
2023-03-11T10:01:50.045Z,1.33
2023-03-11T10:04:20.644Z,1.15
2023-03-11T10:06:48.472Z,1.30
2023-03-11T10:09:39.349Z,1.50
2023-03-11T10:12:28.480Z,1.23
2023-03-11T10:15:19.117Z,1.20
2023-03-11T10:18:08.282Z,1.52
2023-03-11T10:20:58.434Z,1.23
2023-03-11T10:23:32.338Z,1.23
2023-03-11T10:26:19.825Z,1.40
2023-03-11T10:28:51.931Z,1.08
2023-03-11T10:31:27.654Z,1.50
2023-03-11T10:34:15.570Z,1.37
2023-03-11T10:37:06.892Z,1.30
2023-03-11T10:39:34.608Z,1.62
2023-03-11T10:42:05.905Z,1.33
2023-03-11T10:44:35.414Z,1.52
2023-03-11T10:47:03.361Z,1.40
2023-03-11T10:49:30.979Z,1.30
2023-03-11T10:51:58.453Z,1.65
2023-03-11T10:54:31.601Z,1.37
2023-03-11T10:57:03.757Z,1.37
2023-03-11T10:59:45.361Z,1.58
2023-03-11T11:02:26.840Z,1.62
2023-03-11T11:05:06.117Z,1.35
2023-03-11T11:07:35.401Z,1.45
2023-03-11T11:10:12.387Z,1.30
2023-03-11T11:12:59.575Z,1.35
2023-03-11T11:15:32.281Z,1.20
2023-03-11T11:18:19.048Z,1.20
2023-03-11T11:21:03.041Z,1.30
2023-03-11T11:23:41.835Z,1.30
2023-03-11T11:26:20.987Z,1.10
2023-03-11T11:29:05.964Z,1.15
2023-03-11T11:31:34.896Z,1.20
2023-03-11T11:34:02.379Z,1.33
2023-03-11T11:36:30.883Z,1.37
2023-03-11T11:38:59.235Z,1.30
2023-03-11T11:41:27.221Z,1.50
2023-03-11T11:44:03.634Z,1.85
2023-03-11T11:46:38.532Z,1.30
2023-03-11T11:49:07.669Z,1.50
2023-03-11T11:51:43.967Z,1.60
2023-03-11T11:54:17.444Z,1.20
2023-03-11T11:56:45.557Z,1.10
2023-03-11T11:59:22.759Z,1.35
2023-03-11T12:04:44.609Z,1.30
2023-03-11T12:07:36.468Z,1.10
2023-03-11T12:10:29.222Z,1.10
2023-03-11T12:13:34.243Z,1.25
2023-03-11T12:16:03.825Z,1.45
2023-03-11T12:18:37.606Z,1.20
2023-03-11T12:21:29.815Z,1.17
2023-03-11T12:24:03.055Z,1.40
2023-03-11T12:26:33.865Z,1.25
2023-03-11T12:29:19.948Z,1.37
2023-03-11T12:31:47.789Z,1.25
2023-03-11T12:34:17.605Z,1.40
2023-03-11T12:39:32.706Z,1.50
2023-03-11T12:42:25.151Z,1.70
2023-03-11T12:44:53.927Z,1.20
2023-03-11T12:47:25.806Z,1.40
2023-03-11T12:49:55.282Z,1.40
2023-03-11T12:52:29.616Z,1.10
2023-03-11T12:55:01.136Z,1.30
2023-03-11T12:57:34.704Z,1.42
2023-03-11T13:00:10.858Z,1.25
2023-03-11T13:03:12.460Z,1.12
2023-03-11T13:05:43.225Z,0.98
2023-03-11T13:08:14.013Z,1.20
2023-03-11T13:10:45.511Z,1.00
2023-03-11T13:13:23.256Z,1.08
2023-03-11T13:15:54.064Z,1.37
2023-03-11T13:18:25.675Z,1.30
2023-03-11T13:21:29.981Z,1.58
2023-03-11T13:24:19.360Z,1.30
2023-03-11T13:26:59.761Z,1.62
2023-03-11T13:29:39.592Z,1.60
2023-03-11T13:32:19.874Z,1.27
2023-03-11T13:35:18.803Z,1.40
2023-03-11T13:37:50.761Z,1.10
2023-03-11T13:40:33.906Z,1.27
2023-03-11T13:43:04.136Z,1.50
2023-03-11T13:45:35.257Z,1.67
2023-03-11T13:48:17.948Z,1.55
2023-03-11T13:50:51.145Z,1.60
2023-03-11T13:53:56.618Z,1.30
2023-03-11T13:56:29.297Z,1.45
2023-03-11T13:59:18.236Z,1.48
2023-03-11T14:02:12.799Z,1.50
2023-03-11T14:04:41.051Z,1.48
2023-03-11T14:07:38.711Z,1.12
2023-03-11T14:10:26.417Z,1.00
2023-03-11T14:13:27.122Z,1.20
2023-03-11T14:16:09.484Z,1.83
2023-03-11T14:18:43.856Z,1.60
2023-03-11T14:21:22.155Z,1.60
2023-03-11T14:23:51.271Z,1.42
2023-03-11T14:26:20.416Z,1.23
2023-03-11T14:28:55.813Z,1.20
2023-03-11T14:31:46.923Z,1.65
2023-03-11T14:34:16.621Z,1.23
2023-03-11T14:39:32.257Z,1.25
2023-03-11T14:42:22.026Z,1.62
2023-03-11T14:44:58.195Z,1.30
2023-03-11T14:47:40.641Z,1.33
2023-03-11T14:50:22.739Z,1.20
2023-03-11T14:52:59.529Z,1.00
2023-03-11T14:55:40.834Z,1.20
2023-03-11T14:58:38.164Z,1.17
2023-03-11T15:01:07.475Z,1.33
2023-03-11T15:03:39.976Z,1.25
2023-03-11T15:06:09.958Z,1.15
2023-03-11T15:08:42.859Z,1.20
2023-03-11T15:11:10.711Z,0.90
2023-03-11T15:13:43.082Z,1.37
2023-03-11T15:16:30.298Z,1.10
2023-03-11T15:19:00.949Z,1.23
2023-03-11T15:21:28.828Z,1.25
2023-03-11T15:24:05.670Z,1.15
2023-03-11T15:26:34.779Z,1.08
2023-03-11T15:29:06.958Z,1.20
2023-03-11T15:31:37.054Z,1.23
2023-03-11T15:34:29.517Z,1.30
2023-03-11T15:37:02.909Z,1.15
2023-03-11T15:39:30.624Z,1.05
2023-03-11T15:42:07.586Z,1.30
2023-03-11T15:44:41.564Z,1.42
2023-03-11T15:47:17.149Z,1.27
2023-03-11T15:49:45.022Z,1.40
2023-03-11T15:52:12.820Z,1.40
2023-03-11T15:54:40.691Z,1.52
2023-03-11T15:57:11.180Z,1.73
2023-03-11T15:59:42.615Z,1.65
2023-03-11T16:02:25.758Z,1.60
2023-03-11T16:04:54.290Z,1.70
2023-03-11T16:07:36.780Z,1.80
2023-03-11T16:10:08.902Z,1.73
2023-03-11T16:12:36.620Z,1.48
2023-03-11T16:15:05.833Z,1.50
2023-03-11T16:17:48.558Z,1.77
2023-03-11T16:20:21.692Z,1.77
2023-03-11T16:22:51.461Z,1.20
2023-03-11T16:25:39.080Z,1.60
2023-03-11T16:28:07.715Z,1.50
2023-03-11T16:30:35.642Z,1.80
2023-03-11T16:33:05.173Z,1.40
2023-03-11T16:35:33.764Z,1.48
2023-03-11T16:38:01.901Z,1.90
2023-03-11T16:40:30.255Z,1.52
2023-03-11T16:43:04.142Z,1.50
2023-03-11T16:45:32.214Z,1.42
2023-03-11T16:48:00.711Z,1.55
2023-03-11T16:50:28.608Z,1.80
2023-03-11T16:52:56.975Z,1.40
2023-03-11T16:55:25.743Z,1.90
2023-03-11T16:57:54.804Z,1.60
2023-03-11T17:00:23.058Z,1.48
2023-03-11T17:02:55.155Z,2.03
2023-03-11T17:05:23.531Z,1.85
2023-03-11T17:08:01.775Z,1.45
2023-03-11T17:10:30.125Z,2.05
2023-03-11T17:12:58.882Z,1.77
2023-03-11T17:15:26.996Z,2.00
2023-03-11T17:17:55.348Z,1.75
2023-03-11T17:20:24.683Z,1.95
2023-03-11T17:22:53.168Z,1.90
2023-03-11T17:25:21.125Z,1.80
2023-03-11T17:27:50.333Z,2.00
2023-03-11T17:30:35.665Z,1.90
2023-03-11T17:33:05.452Z,1.92
2023-03-11T17:35:34.114Z,1.60
2023-03-11T17:38:02.547Z,1.60
2023-03-11T17:40:33.128Z,1.60
2023-03-11T17:43:01.130Z,2.12
2023-03-11T17:45:29.361Z,1.73
2023-03-11T17:50:27.533Z,1.67
2023-03-11T17:52:56.659Z,2.03
2023-03-11T17:55:26.285Z,1.87
2023-03-11T17:57:55.056Z,1.60
2023-03-11T18:00:23.851Z,1.70
2023-03-11T18:02:52.548Z,1.80
2023-03-11T18:05:21.435Z,1.83
2023-03-11T18:07:52.842Z,2.00
2023-03-11T18:10:21.816Z,1.50
2023-03-11T18:12:50.549Z,2.00
2023-03-11T18:15:19.686Z,1.80
2023-03-11T18:17:48.895Z,1.67
2023-03-11T18:22:47.120Z,1.73
2023-03-11T18:25:16.211Z,1.70
2023-03-11T18:27:44.602Z,1.80
2023-03-11T18:30:13.590Z,1.80
2023-03-11T18:32:42.230Z,1.58
2023-03-11T18:35:10.313Z,1.85
2023-03-11T18:37:38.754Z,1.60
2023-03-11T18:40:08.206Z,2.00
2023-03-11T18:42:36.568Z,1.85
2023-03-11T18:45:08.181Z,1.73
2023-03-11T18:47:36.762Z,1.87
2023-03-11T18:50:05.626Z,1.60
2023-03-11T18:52:34.126Z,1.60
2023-03-11T18:55:03.311Z,2.17
2023-03-11T18:57:31.751Z,1.67
2023-03-11T19:00:01.563Z,1.85
2023-03-11T19:02:31.363Z,1.60
2023-03-11T19:04:59.862Z,1.70
2023-03-11T19:07:29.613Z,1.70
2023-03-11T19:12:29.576Z,1.60
2023-03-11T19:14:58.247Z,1.70
2023-03-11T19:17:28.107Z,1.75
2023-03-11T19:19:56.788Z,1.40
2023-03-11T19:22:25.927Z,1.57
2023-03-11T19:24:54.879Z,1.52
2023-03-11T19:27:23.423Z,1.60
2023-03-11T19:29:53.393Z,1.60
2023-03-11T19:32:21.494Z,1.50
2023-03-11T19:34:49.597Z,1.73
2023-03-11T19:37:21.452Z,1.50
2023-03-11T19:39:49.847Z,2.10
2023-03-11T19:42:19.937Z,1.77
2023-03-11T19:44:48.403Z,2.33
2023-03-11T19:47:17.292Z,1.62
2023-03-11T19:49:46.351Z,1.58
2023-03-11T19:52:15.898Z,2.28
2023-03-11T19:54:44.581Z,1.77
2023-03-11T19:57:13.070Z,1.90
2023-03-11T19:59:41.454Z,1.80
2023-03-11T20:02:12.693Z,2.03
2023-03-11T20:04:43.227Z,1.83
2023-03-11T20:07:11.534Z,1.85
2023-03-11T20:09:39.567Z,1.60
2023-03-11T20:12:08.270Z,1.52
2023-03-11T20:14:36.606Z,1.80
2023-03-11T20:17:04.355Z,1.87
2023-03-11T20:19:33.811Z,1.80
2023-03-11T20:22:02.136Z,1.67
2023-03-11T20:24:30.863Z,1.67
2023-03-11T20:26:59.733Z,1.50
2023-03-11T20:29:28.567Z,1.55
2023-03-11T20:31:57.543Z,1.80
2023-03-11T20:34:26.668Z,1.52
2023-03-11T20:36:55.368Z,1.83
2023-03-11T20:39:24.088Z,1.87
2023-03-11T20:41:55.821Z,2.12
2023-03-11T20:44:27.446Z,1.80
2023-03-11T20:46:56.224Z,1.48
2023-03-11T20:49:24.948Z,1.70
2023-03-11T20:51:53.089Z,1.60
2023-03-11T20:54:21.414Z,1.45
2023-03-11T20:56:51.134Z,1.50
2023-03-11T20:59:19.187Z,2.00
2023-03-11T21:01:49.857Z,1.62
2023-03-11T21:04:19.035Z,1.60
2023-03-11T21:06:52.637Z,1.62
2023-03-11T21:09:21.875Z,1.85
2023-03-11T21:11:50.499Z,1.95
2023-03-11T21:14:18.346Z,1.77
2023-03-11T21:16:46.816Z,1.80
2023-03-11T21:19:15.552Z,1.85
2023-03-11T21:21:44.316Z,2.00
2023-03-11T21:24:13.175Z,1.62
2023-03-11T21:26:41.351Z,1.80
2023-03-11T21:29:09.466Z,2.03
2023-03-11T21:31:38.339Z,1.85
2023-03-11T21:34:06.845Z,1.80
2023-03-11T21:36:34.741Z,1.85
2023-03-11T21:39:03.827Z,2.12
2023-03-11T21:41:32.010Z,1.58
2023-03-11T21:43:59.780Z,1.77
2023-03-11T21:46:30.090Z,1.80
2023-03-11T21:48:58.737Z,1.70
2023-03-11T21:51:26.458Z,1.67
2023-03-11T21:53:54.288Z,1.95
2023-03-11T21:56:22.525Z,1.58
2023-03-11T21:58:50.224Z,1.70
2023-03-11T22:01:18.206Z,1.40
2023-03-11T22:03:47.396Z,1.50
2023-03-11T22:06:15.606Z,1.60
2023-03-11T22:08:43.175Z,1.58
2023-03-11T22:11:14.411Z,1.40
2023-03-11T22:13:41.988Z,1.27
2023-03-11T22:16:09.469Z,1.75
2023-03-11T22:18:37.236Z,1.50
2023-03-11T22:21:05.199Z,1.50
2023-03-11T22:23:32.693Z,1.70
2023-03-11T22:26:00.597Z,1.80
2023-03-11T22:28:28.094Z,1.80
2023-03-11T22:30:55.515Z,1.40
2023-03-11T22:33:23.248Z,1.58
2023-03-11T22:35:52.862Z,1.27
2023-03-11T22:38:20.485Z,1.65
2023-03-11T22:40:48.217Z,1.77
2023-03-11T22:43:15.655Z,1.67
2023-03-11T22:45:44.769Z,1.60
2023-03-11T22:48:12.646Z,1.83
2023-03-11T22:50:41.750Z,1.87
2023-03-11T22:53:09.183Z,2.03
2023-03-11T22:55:43.351Z,1.62
2023-03-11T22:58:11.216Z,1.70
2023-03-11T23:00:39.010Z,1.87
2023-03-11T23:03:06.622Z,1.58
2023-03-11T23:05:40.792Z,1.42
2023-03-11T23:08:13.333Z,1.50
2023-03-11T23:10:41.741Z,1.80
2023-03-11T23:13:09.595Z,1.73
2023-03-11T23:15:37.033Z,1.40
2023-03-11T23:18:04.648Z,1.50
2023-03-11T23:20:34.801Z,1.45
2023-03-11T23:23:02.724Z,1.60
2023-03-11T23:25:30.167Z,1.55
2023-03-11T23:27:57.956Z,1.37
2023-03-11T23:30:25.437Z,2.33
2023-03-11T23:32:52.880Z,1.48
2023-03-11T23:35:20.606Z,1.50
2023-03-11T23:37:49.128Z,1.48
2023-03-11T23:40:16.760Z,1.67
2023-03-11T23:42:44.472Z,1.48
2023-03-11T23:45:11.911Z,1.50
2023-03-11T23:47:39.345Z,1.70
2023-03-11T23:50:07.313Z,1.42
2023-03-11T23:52:34.886Z,1.90
2023-03-11T23:55:02.293Z,1.40
2023-03-11T23:57:29.985Z,1.50
2023-03-11T23:59:57.453Z,1.30
